Time;durP1;ratioP1;P1;durP2;ratioP2;P2;SDS_P1;SDS_P2;PMS_P1;PMS_P2;Temp;Humidity;BMP_temperature;BMP_pressure;BME280_temperature;BME280_humidity;BME280_pressure;Samples;Min_cycle;Max_cycle;Signal;HPM_P1;HPM_P2
2023/01/07 00:02:16;;;;;;;2.42;0.90;;;;;;;12.08;75.36;100438.13;5049199;28;20390;-51
2023/01/07 00:04:43;;;;;;;1.52;0.80;;;;;;;11.96;75.13;100441.53;5051209;28;20112;-53
2023/01/07 00:07:12;;;;;;;2.30;1.10;;;;;;;12.07;74.01;100439.28;5050780;28;20060;-51
2023/01/07 00:09:39;;;;;;;1.73;0.90;;;;;;;12.13;74.21;100432.38;5049665;28;20049;-54
2023/01/07 00:12:07;;;;;;;1.30;0.88;;;;;;;12.19;73.57;100429.09;5053692;28;20064;-50
2023/01/07 00:14:34;;;;;;;1.20;0.77;;;;;;;12.12;74.31;100431.56;5054298;28;20053;-53
2023/01/07 00:17:01;;;;;;;1.40;0.80;;;;;;;12.17;74.06;100425.81;5050211;28;20044;-50
2023/01/07 00:19:28;;;;;;;1.65;0.90;;;;;;;12.18;73.84;100427.47;5050209;28;20053;-53
2023/01/07 00:21:56;;;;;;;2.95;0.88;;;;;;;12.13;73.26;100433.19;5049792;28;20056;-52
2023/01/07 00:24:24;;;;;;;2.55;0.80;;;;;;;12.30;73.45;100428.78;5049569;28;20049;-50
2023/01/07 00:26:52;;;;;;;1.30;0.82;;;;;;;12.22;72.60;100424.00;5053953;28;20049;-49
2023/01/07 00:29:21;;;;;;;1.83;0.90;;;;;;;12.19;73.45;100419.91;5055187;28;20048;-50
2023/01/07 00:31:48;;;;;;;1.33;0.88;;;;;;;12.21;73.16;100433.56;5050581;28;20056;-49
2023/01/07 00:34:16;;;;;;;1.35;0.90;;;;;;;12.25;73.06;100426.97;5050729;28;20056;-50
2023/01/07 00:36:45;;;;;;;2.17;1.00;;;;;;;12.26;72.24;100422.22;5050382;28;20045;-51
2023/01/07 00:39:15;;;;;;;2.47;0.93;;;;;;;12.32;72.46;100415.31;5047896;28;20056;-50
2023/01/07 00:44:27;;;;;;;1.35;0.75;;;;;;;12.22;72.46;100419.28;5050299;28;20060;-49
2023/01/07 00:46:54;;;;;;;1.48;0.85;;;;;;;12.28;71.96;100414.31;5049882;28;20060;-51
2023/01/07 00:49:23;;;;;;;1.98;0.80;;;;;;;12.21;72.70;100408.41;5049541;28;20060;-49
2023/01/07 00:51:50;;;;;;;2.08;0.90;;;;;;;12.32;72.06;100416.13;5050060;28;20049;-48
2023/01/07 00:54:20;;;;;;;2.15;1.00;;;;;;;12.35;72.42;100409.09;5053542;28;20060;-52
2023/01/07 00:56:49;;;;;;;1.30;0.80;;;;;;;12.37;72.12;100410.41;5045008;28;20072;-51
2023/01/07 00:59:16;;;;;;;1.85;0.73;;;;;;;12.44;71.74;100400.72;5054453;28;20049;-48
2023/01/07 01:01:46;;;;;;;1.25;0.70;;;;;;;12.46;71.91;100407.59;5052465;28;20388;-50
2023/01/07 01:04:13;;;;;;;;;;;;;;;12.33;71.09;100395.44;5053572;28;20441;-51
2023/01/07 01:06:43;;;;;;;1.63;0.90;;;;;;;12.36;70.98;100411.53;5051361;28;20369;-50
2023/01/07 01:09:11;;;;;;;1.77;0.93;;;;;;;12.41;71.92;100392.97;5053241;28;20056;-50
2023/01/07 01:11:38;;;;;;;1.27;0.80;;;;;;;12.47;71.83;100397.25;5052557;28;20417;-51
2023/01/07 01:14:07;;;;;;;1.40;0.85;;;;;;;12.47;70.54;100388.88;5045890;28;20067;-49
2023/01/07 01:16:34;;;;;;;2.40;0.90;;;;;;;12.49;71.40;100390.16;5053383;28;20044;-49
2023/01/07 01:19:01;;;;;;;1.88;0.80;;;;;;;12.47;71.28;100388.88;5053706;28;20053;-50
2023/01/07 01:21:28;;;;;;;1.27;0.70;;;;;;;12.39;70.97;100382.16;5053706;28;20060;-52
2023/01/07 01:23:55;;;;;;;1.30;0.85;;;;;;;12.43;71.46;100391.53;5053993;28;20057;-51
2023/01/07 01:26:23;;;;;;;1.40;0.80;;;;;;;12.29;71.24;100379.69;5053164;28;20409;-51
2023/01/07 01:28:50;;;;;;;1.52;0.90;;;;;;;12.39;71.16;100377.38;5054077;28;20051;-49
2023/01/07 01:31:18;;;;;;;1.10;0.70;;;;;;;12.32;71.06;100404.97;5052477;28;20057;-51
2023/01/07 01:33:46;;;;;;;1.40;0.90;;;;;;;12.36;71.57;100388.38;5052647;28;20049;-49
2023/01/07 01:36:13;;;;;;;1.33;0.90;;;;;;;12.31;70.47;100380.19;5052748;28;20044;-52
2023/01/07 01:38:41;;;;;;;1.33;0.70;;;;;;;12.29;71.55;100391.66;5052792;28;20478;-50
2023/01/07 01:41:16;;;;;;;1.30;0.90;;;;;;;12.31;70.86;100389.38;5055296;28;20081;-50
2023/01/07 01:43:44;;;;;;;1.50;0.90;;;;;;;12.28;71.17;100392.81;5051966;28;20057;-51
2023/01/07 01:46:15;;;;;;;2.15;0.93;;;;;;;12.35;71.39;100386.75;5052088;28;20059;-50
2023/01/07 01:48:47;;;;;;;2.25;0.82;;;;;;;12.31;70.86;100377.38;5051884;28;20056;-50
2023/01/07 01:51:20;;;;;;;1.60;0.73;;;;;;;12.34;70.91;100376.72;5050042;28;20057;-49
2023/01/07 01:53:48;;;;;;;1.33;0.80;;;;;;;12.26;70.59;100374.75;5053670;28;20428;-54
2023/01/07 01:56:27;;;;;;;2.45;1.10;;;;;;;12.24;70.78;100377.03;5055240;28;20401;-50
2023/01/07 01:59:01;;;;;;;1.35;0.98;;;;;;;12.25;70.64;100376.72;5049795;28;20413;-49
2023/01/07 02:01:28;;;;;;;1.58;0.93;;;;;;;12.21;70.75;100384.09;5050295;28;20061;-51
2023/01/07 02:03:57;;;;;;;1.50;0.90;;;;;;;12.20;71.75;100385.28;5052715;28;20059;-49
2023/01/07 02:06:26;;;;;;;1.92;0.95;;;;;;;12.16;71.69;100370.31;5052268;28;20064;-48
2023/01/07 02:08:54;;;;;;;2.15;1.10;;;;;;;12.17;70.73;100374.75;5053279;28;20474;-48
2023/01/07 02:11:37;;;;;;;2.15;0.88;;;;;;;12.26;70.80;100374.75;5051287;28;20482;-49
2023/01/07 02:14:17;;;;;;;1.75;0.80;;;;;;;12.27;70.94;100379.19;5051111;28;20056;-48
2023/01/07 02:16:53;;;;;;;2.00;0.82;;;;;;;12.30;71.03;100378.50;5052512;28;20465;-52
2023/01/07 02:19:53;;;;;;;1.42;1.05;;;;;;;12.33;70.78;100377.88;5052469;28;20064;-54
2023/01/07 02:22:36;;;;;;;1.33;0.80;;;;;;;12.30;70.63;100373.75;5049554;28;20045;-50
2023/01/07 02:25:29;;;;;;;1.40;0.82;;;;;;;12.30;70.90;100373.75;5052010;28;20059;-50
2023/01/07 02:28:20;;;;;;;1.83;0.88;;;;;;;12.31;70.54;100369.00;5052758;28;20060;-52
2023/01/07 02:31:16;;;;;;;1.60;0.80;;;;;;;12.30;70.56;100376.53;5048301;28;20049;-53
2023/01/07 02:33:54;;;;;;;1.42;0.85;;;;;;;12.41;70.37;100371.47;5053136;28;20498;-53
2023/01/07 02:36:47;;;;;;;1.40;0.80;;;;;;;12.23;70.07;100370.63;5051094;28;20080;-52
2023/01/07 02:39:38;;;;;;;2.40;0.88;;;;;;;12.31;69.91;100371.81;5050502;28;20055;-52
2023/01/07 02:42:13;;;;;;;1.55;0.90;;;;;;;12.18;71.12;100360.47;5052136;28;20053;-51
2023/01/07 02:44:45;;;;;;;1.30;0.82;;;;;;;12.20;70.77;100374.09;5052894;28;20056;-48
2023/01/07 02:47:19;;;;;;;1.48;0.80;;;;;;;12.30;69.84;100379.34;5051511;28;20049;-49
2023/01/07 02:49:48;;;;;;;1.23;0.75;;;;;;;12.26;70.59;100361.59;5051925;28;20417;-52
2023/01/07 02:52:19;;;;;;;1.35;0.80;;;;;;;12.37;70.43;100348.94;5043452;28;20053;-48
2023/01/07 02:54:52;;;;;;;1.75;0.90;;;;;;;12.36;69.76;100352.88;5052815;28;20060;-50
2023/01/07 02:57:40;;;;;;;1.17;0.80;;;;;;;12.30;69.95;100351.41;5050368;28;20501;-49
2023/01/07 03:00:19;;;;;;;1.52;0.85;;;;;;;12.19;69.96;100353.72;5050301;28;20505;-49
2023/01/07 03:03:10;;;;;;;1.58;0.90;;;;;;;12.17;70.14;100358.81;5056473;28;20056;-51
2023/01/07 03:05:49;;;;;;;1.10;0.70;;;;;;;12.10;70.53;100347.31;5051777;28;20052;-51
2023/01/07 03:08:36;;;;;;;1.30;0.80;;;;;;;12.24;70.85;100336.00;5046695;28;20048;-53
2023/01/07 03:11:06;;;;;;;1.58;1.00;;;;;;;12.18;70.06;100343.69;5047623;28;20048;-50
2023/01/07 03:13:40;;;;;;;1.85;0.90;;;;;;;12.29;69.65;100337.78;5052013;28;20072;-51
2023/01/07 03:16:12;;;;;;;1.35;0.90;;;;;;;12.27;69.42;100334.50;5043071;28;20052;-49
2023/01/07 03:18:43;;;;;;;2.05;0.70;;;;;;;12.25;70.20;100334.00;5051668;28;20489;-51
2023/01/07 03:21:15;;;;;;;1.50;0.90;;;;;;;12.22;70.11;100329.06;5050374;28;20053;-49
2023/01/07 03:23:46;;;;;;;1.40;1.00;;;;;;;12.16;69.75;100329.25;5051161;28;20049;-50
2023/01/07 03:26:18;;;;;;;1.30;0.73;;;;;;;12.26;70.57;100324.47;5050024;28;20053;-60
2023/01/07 03:28:48;;;;;;;1.40;0.90;;;;;;;12.20;70.04;100323.84;5051198;28;20049;-59
2023/01/07 03:31:16;;;;;;;2.10;0.93;;;;;;;12.17;70.13;100314.13;5057265;28;20067;-60
2023/01/07 03:33:50;;;;;;;1.50;0.70;;;;;;;12.14;70.41;100325.16;5048940;28;20421;-61
2023/01/07 03:36:25;;;;;;;2.50;1.00;;;;;;;12.08;70.62;100309.72;5049299;28;20512;-57
2023/01/07 03:38:55;;;;;;;1.80;1.00;;;;;;;12.13;70.90;100329.88;5048780;28;20056;-59
2023/01/07 03:44:07;;;;;;;2.55;1.00;;;;;;;12.12;69.91;100314.31;5058212;28;20075;-61
2023/01/07 03:46:36;;;;;;;1.40;0.98;;;;;;;12.11;70.25;100309.84;5054194;28;20049;-61
2023/01/07 03:49:04;;;;;;;3.22;1.30;;;;;;;11.90;70.90;100304.09;5049619;28;20044;-61
2023/01/07 03:51:32;;;;;;;1.70;0.95;;;;;;;11.98;70.71;100300.50;5049982;28;20394;-59
2023/01/07 03:54:00;;;;;;;1.55;1.00;;;;;;;12.02;70.83;100306.25;5047762;28;20072;-61
2023/01/07 03:56:27;;;;;;;2.38;1.27;;;;;;;11.94;70.83;100293.94;5049072;28;20056;-61
2023/01/07 03:58:55;;;;;;;1.98;1.10;;;;;;;12.00;71.14;100288.19;5049728;28;20048;-60
2023/01/07 04:01:22;;;;;;;1.50;1.00;;;;;;;12.07;70.76;100297.69;5050084;28;20056;-59
2023/01/07 04:03:49;;;;;;;2.83;1.30;;;;;;;12.05;70.53;100294.41;5051459;28;20049;-61
2023/01/07 04:06:19;;;;;;;2.58;1.10;;;;;;;12.13;69.84;100281.59;5050365;28;20059;-61
2023/01/07 04:08:47;;;;;;;1.50;1.10;;;;;;;12.08;70.05;100277.03;5049455;28;20052;-61
2023/01/07 04:11:15;;;;;;;1.65;1.10;;;;;;;12.05;70.42;100265.69;5050144;28;20061;-62
2023/01/07 04:13:42;;;;;;;1.80;1.23;;;;;;;11.97;70.34;100276.53;5051286;28;20076;-61
2023/01/07 04:16:09;;;;;;;2.35;1.20;;;;;;;12.05;70.58;100260.09;5048348;28;20490;-61
2023/01/07 04:18:36;;;;;;;1.88;1.10;;;;;;;12.00;70.48;100254.69;5050975;28;20045;-61
2023/01/07 04:21:04;;;;;;;1.80;1.20;;;;;;;12.01;70.41;100253.53;5050497;28;20410;-61
2023/01/07 04:23:31;;;;;;;2.20;1.30;;;;;;;11.95;70.44;100250.13;5051508;28;20056;-60
2023/01/07 04:26:02;;;;;;;1.98;1.23;;;;;;;11.96;69.93;100251.75;5050601;28;20056;-61
2023/01/07 04:28:30;;;;;;;2.28;1.42;;;;;;;11.97;70.15;100256.19;5053341;28;20049;-59
2023/01/07 04:30:58;;;;;;;2.25;1.30;;;;;;;11.94;70.61;100263.22;5054693;28;20068;-61
2023/01/07 04:33:25;;;;;;;1.75;1.30;;;;;;;11.97;70.29;100242.22;5054130;28;20052;-61
2023/01/07 04:35:54;;;;;;;2.72;1.40;;;;;;;11.82;70.54;100257.44;5054365;28;20059;-62
2023/01/07 04:38:21;;;;;;;2.42;1.17;;;;;;;11.92;70.03;100248.78;5049575;28;20068;-61
2023/01/07 04:40:49;;;;;;;2.33;1.30;;;;;;;11.89;70.05;100241.06;5054089;28;20504;-61
2023/01/07 04:43:17;;;;;;;2.63;1.20;;;;;;;11.94;69.87;100234.50;5053175;28;20060;-61
2023/01/07 04:45:44;;;;;;;2.53;1.73;;;;;;;11.90;69.92;100237.13;5051393;28;20049;-60
2023/01/07 04:48:12;;;;;;;2.13;1.60;;;;;;;11.92;69.83;100234.81;5054071;28;20053;-61
2023/01/07 04:50:39;;;;;;;2.42;1.70;;;;;;;11.96;70.23;100246.16;5053703;28;20057;-61
2023/01/07 04:53:11;;;;;;;1.88;1.20;;;;;;;11.92;69.85;100229.25;5052599;28;20055;-61
2023/01/07 04:55:38;;;;;;;2.33;1.58;;;;;;;11.88;69.77;100238.56;5052407;28;20067;-57
2023/01/07 04:58:05;;;;;;;1.80;1.40;;;;;;;11.79;70.37;100241.38;5053768;28;20060;-61
2023/01/07 05:00:34;;;;;;;1.85;1.40;;;;;;;11.88;70.09;100233.00;5052152;28;20072;-61
2023/01/07 05:03:01;;;;;;;3.72;1.40;;;;;;;11.88;70.05;100236.63;5047925;28;20060;-61
2023/01/07 05:05:28;;;;;;;2.22;1.30;;;;;;;11.73;70.04;100242.69;5053068;28;20049;-60
2023/01/07 05:07:56;;;;;;;2.13;1.40;;;;;;;11.76;69.72;100234.47;5050465;28;20049;-60
2023/01/07 05:10:23;;;;;;;2.00;1.20;;;;;;;11.84;69.22;100245.97;5055368;28;20049;-61
2023/01/07 05:12:50;;;;;;;2.40;1.35;;;;;;;11.92;69.35;100229.25;5052705;28;20048;-61
2023/01/07 05:15:17;;;;;;;3.95;1.58;;;;;;;11.94;69.15;100235.31;5059798;28;20060;-61
2023/01/07 05:17:46;;;;;;;2.28;1.30;;;;;;;11.88;68.65;100233.84;5053743;28;20053;-61
2023/01/07 05:20:16;;;;;;;2.63;1.30;;;;;;;11.94;68.83;100214.97;5053505;28;20045;-61
2023/01/07 05:22:45;;;;;;;1.98;1.38;;;;;;;12.02;68.88;100232.84;5051923;28;20049;-61
2023/01/07 05:25:12;;;;;;;2.33;1.47;;;;;;;11.98;68.74;100219.53;5057770;28;20070;-61
2023/01/07 05:27:39;;;;;;;2.10;1.23;;;;;;;12.00;68.40;100212.81;5050866;28;20401;-61
2023/01/07 05:30:07;;;;;;;3.25;1.67;;;;;;;11.84;68.36;100215.25;5053794;28;20485;-61
2023/01/07 05:32:35;;;;;;;2.67;1.25;;;;;;;11.84;69.18;100204.91;5055403;28;20144;-60
2023/01/07 05:35:04;;;;;;;2.67;1.50;;;;;;;11.85;68.92;100216.91;5054741;28;20057;-61
2023/01/07 05:37:34;;;;;;;3.78;1.65;;;;;;;11.84;68.78;100204.91;5051992;28;20423;-61
2023/01/07 05:40:05;;;;;;;2.20;1.20;;;;;;;11.74;68.99;100200.50;5050184;28;20401;-60
2023/01/07 05:42:32;;;;;;;2.10;1.10;;;;;;;11.64;68.96;100194.44;5053516;28;20063;-61
2023/01/07 05:45:00;;;;;;;3.50;1.52;;;;;;;11.66;69.12;100200.50;5051605;28;20061;-61
2023/01/07 05:47:27;;;;;;;3.55;1.40;;;;;;;11.54;69.96;100190.00;5059630;28;20053;-61
2023/01/07 05:49:54;;;;;;;3.13;1.40;;;;;;;11.44;69.64;100207.06;5047628;28;20067;-56
2023/01/07 05:52:23;;;;;;;2.22;1.38;;;;;;;11.46;69.80;100193.59;5048582;28;20405;-60
2023/01/07 05:54:50;;;;;;;2.25;1.63;;;;;;;11.33;70.02;100200.97;5056390;28;20516;-60
2023/01/07 05:57:17;;;;;;;2.88;1.40;;;;;;;11.40;69.91;100192.13;5052722;28;20053;-61
2023/01/07 05:59:47;;;;;;;2.15;1.52;;;;;;;11.36;69.97;100190.00;5053087;28;20056;-61
2023/01/07 06:02:18;;;;;;;3.65;1.25;;;;;;;11.35;69.92;100193.91;5049543;28;20056;-60
2023/01/07 06:04:45;;;;;;;2.35;1.60;;;;;;;11.32;69.73;100191.78;5051651;28;20057;-61
2023/01/07 06:07:12;;;;;;;2.85;1.40;;;;;;;11.36;68.91;100190.00;5059574;28;20064;-61
2023/01/07 06:09:41;;;;;;;2.00;1.48;;;;;;;11.46;69.49;100190.81;5055029;28;20057;-61
2023/01/07 06:12:08;;;;;;;2.00;1.42;;;;;;;11.34;69.22;100186.72;5056417;28;20052;-60
2023/01/07 06:14:36;;;;;;;3.42;1.50;;;;;;;11.43;69.16;100191.47;5061487;28;20055;-61
2023/01/07 06:17:03;;;;;;;3.85;1.27;;;;;;;11.39;68.67;100182.94;5052567;28;20056;-61
2023/01/07 06:19:30;;;;;;;2.67;1.35;;;;;;;11.40;68.74;100184.56;5051845;28;20052;-61
2023/01/07 06:21:58;;;;;;;2.03;1.33;;;;;;;11.45;68.73;100187.22;5050724;28;20057;-61
2023/01/07 06:24:25;;;;;;;2.28;1.20;;;;;;;11.54;68.42;100178.84;5050749;28;20052;-61
2023/01/07 06:26:54;;;;;;;2.03;1.20;;;;;;;11.53;68.36;100175.25;5052143;28;20061;-61
2023/01/07 06:29:21;;;;;;;1.58;1.08;;;;;;;11.48;68.88;100174.56;5052599;28;20067;-61
2023/01/07 06:31:48;;;;;;;1.95;1.25;;;;;;;11.49;69.02;100163.09;5052512;28;20056;-61
2023/01/07 06:34:16;;;;;;;1.70;1.05;;;;;;;11.49;68.53;100159.50;5055185;28;20052;-61
2023/01/07 06:36:43;;;;;;;2.20;1.10;;;;;;;11.51;68.64;100166.38;5052189;28;20049;-61
2023/01/07 06:39:11;;;;;;;2.55;1.40;;;;;;;11.57;68.39;100161.47;5048099;28;20060;-60
2023/01/07 06:41:38;;;;;;;1.67;1.17;;;;;;;11.69;68.73;100158.00;5051677;28;20055;-61
2023/01/07 06:44:07;;;;;;;3.05;1.20;;;;;;;11.70;68.27;100163.25;5047143;28;20049;-61
2023/01/07 06:46:34;;;;;;;1.33;0.80;;;;;;;11.54;68.40;100167.69;5049951;28;20057;-56
2023/01/07 06:49:01;;;;;;;1.70;1.30;;;;;;;11.63;68.07;100159.31;5051127;28;20060;-61
2023/01/07 06:51:29;;;;;;;2.20;1.20;;;;;;;11.69;67.75;100164.38;5049181;28;20067;-61
2023/01/07 06:53:56;;;;;;;1.92;1.00;;;;;;;11.61;68.00;100167.19;5053533;28;20056;-61
2023/01/07 06:56:23;;;;;;;1.80;1.00;;;;;;;11.64;68.02;100161.78;5050176;28;20386;-61
2023/01/07 06:58:50;;;;;;;2.00;1.20;;;;;;;11.68;67.74;100157.19;5048529;28;20053;-61
2023/01/07 07:01:20;;;;;;;2.20;1.20;;;;;;;11.77;68.02;100165.53;5048758;28;20045;-61
2023/01/07 07:03:47;;;;;;;2.33;1.00;;;;;;;11.72;68.16;100165.72;5047692;28;20045;-61
2023/01/07 07:06:14;;;;;;;1.98;1.15;;;;;;;11.70;67.71;100152.09;5049231;28;20044;-56
2023/01/07 07:08:41;;;;;;;2.22;1.23;;;;;;;11.72;68.26;100169.31;5050625;28;20056;-61
2023/01/07 07:11:09;;;;;;;2.47;1.27;;;;;;;11.77;67.74;100157.97;5050360;28;20486;-61
2023/01/07 07:13:36;;;;;;;2.05;1.00;;;;;;;11.85;67.79;100147.97;5055557;28;20052;-61
2023/01/07 07:16:03;;;;;;;2.13;1.20;;;;;;;11.78;67.79;100144.88;5051518;28;20423;-61
2023/01/07 07:18:32;;;;;;;2.00;1.13;;;;;;;11.79;67.53;100149.28;5050447;28;20425;-61
2023/01/07 07:20:59;;;;;;;1.97;1.00;;;;;;;11.82;67.08;100145.81;5052192;28;20078;-61
2023/01/07 07:23:26;;;;;;;1.48;0.93;;;;;;;11.76;67.82;100142.41;5048607;28;20059;-56
2023/01/07 07:25:54;;;;;;;1.50;1.10;;;;;;;11.76;67.14;100147.16;5052208;28;20063;-61
2023/01/07 07:28:21;;;;;;;4.22;1.20;;;;;;;11.72;67.82;100148.97;5050218;28;20052;-62
2023/01/07 07:30:48;;;;;;;1.70;1.25;;;;;;;11.83;67.34;100144.69;5049894;28;20045;-61
2023/01/07 07:33:17;;;;;;;2.17;1.23;;;;;;;11.75;67.50;100139.94;5050345;28;20063;-61
2023/01/07 07:35:46;;;;;;;2.33;1.13;;;;;;;11.68;67.35;100145.22;5051448;28;20049;-61
2023/01/07 07:38:16;;;;;;;1.85;0.90;;;;;;;11.70;67.46;100140.13;5064197;28;20049;-61
2023/01/07 07:40:43;;;;;;;2.35;1.05;;;;;;;11.66;67.78;100133.56;5062863;28;20051;-61
2023/01/07 07:43:10;;;;;;;2.78;1.10;;;;;;;11.70;67.25;100128.97;5056336;28;20049;-61
2023/01/07 07:45:38;;;;;;;1.50;0.93;;;;;;;11.80;67.23;100131.41;5050325;28;20052;-61
2023/01/07 07:48:06;;;;;;;3.28;1.15;;;;;;;11.81;67.08;100135.81;5051285;28;20443;-61
2023/01/07 07:50:33;;;;;;;2.28;0.90;;;;;;;11.82;67.47;100131.06;5049481;28;20075;-61
2023/01/07 07:53:02;;;;;;;3.22;1.20;;;;;;;11.81;67.25;100133.03;5051309;28;20049;-61
2023/01/07 07:55:29;;;;;;;1.88;1.05;;;;;;;11.84;67.26;100140.72;5049947;28;20052;-61
2023/01/07 07:57:58;;;;;;;1.63;0.82;;;;;;;11.91;67.07;100121.56;5068140;28;20064;-61
2023/01/07 08:00:25;;;;;;;1.80;1.00;;;;;;;11.88;66.39;100126.94;5067536;28;20053;-58
2023/01/07 08:02:52;;;;;;;1.52;0.80;;;;;;;11.87;66.17;100128.91;5061575;28;20096;-61
2023/01/07 08:05:19;;;;;;;1.55;0.80;;;;;;;11.82;66.56;100120.69;5063771;28;20048;-61
2023/01/07 08:07:47;;;;;;;1.90;0.80;;;;;;;11.91;65.76;100115.16;5049069;28;20052;-58
2023/01/07 08:10:15;;;;;;;1.42;0.75;;;;;;;11.89;65.16;100125.84;5071478;28;20051;-59
2023/01/07 08:12:43;;;;;;;2.50;0.80;;;;;;;11.88;65.46;100118.56;5071199;28;20484;-61
2023/01/07 08:15:10;;;;;;;2.35;0.77;;;;;;;11.91;65.48;100124.34;5048760;28;20060;-61
2023/01/07 08:17:38;;;;;;;1.40;0.80;;;;;;;12.00;64.51;100115.13;5049133;28;20055;-62
2023/01/07 08:20:06;;;;;;;1.52;0.80;;;;;;;12.05;65.01;100110.16;5049517;28;20056;-61
2023/01/07 08:22:34;;;;;;;1.53;1.00;;;;;;;12.01;64.84;100105.59;5048460;28;20592;-60
2023/01/07 08:25:01;;;;;;;1.25;0.90;;;;;;;12.03;64.55;100106.06;5047939;28;20064;-61
2023/01/07 08:27:29;;;;;;;2.75;1.00;;;;;;;12.00;65.15;100107.56;5048819;28;20045;-61
2023/01/07 08:29:57;;;;;;;1.50;0.82;;;;;;;12.00;64.89;100101.19;5045726;28;20053;-61
2023/01/07 08:32:24;;;;;;;1.35;0.80;;;;;;;12.06;64.44;100097.88;5044832;28;20045;-61
2023/01/07 08:34:51;;;;;;;1.45;0.70;;;;;;;12.09;63.88;100102.75;5049346;28;20045;-61
2023/01/07 08:37:19;;;;;;;2.00;0.77;;;;;;;12.04;63.86;100104.94;5045631;28;20072;-61
2023/01/07 08:39:46;;;;;;;1.40;0.60;;;;;;;12.06;64.76;100100.66;5053485;28;20052;-60
2023/01/07 08:42:13;;;;;;;1.80;0.90;;;;;;;12.06;64.27;100097.06;5053360;28;20064;-61
2023/01/07 08:44:42;;;;;;;1.50;0.93;;;;;;;12.19;63.79;100087.63;5049008;28;20049;-62
2023/01/07 08:47:10;;;;;;;1.85;0.90;;;;;;;12.18;63.29;100089.59;5047766;28;20052;-61
2023/01/07 08:49:37;;;;;;;1.88;0.70;;;;;;;11.98;63.51;100099.53;5049000;28;20048;-61
2023/01/07 08:52:04;;;;;;;1.35;0.75;;;;;;;12.10;63.72;100092.44;5047699;28;20060;-61
2023/01/07 08:54:32;;;;;;;1.65;0.70;;;;;;;12.18;63.53;100094.38;5042548;28;20045;-60
2023/01/07 08:56:59;;;;;;;2.00;0.80;;;;;;;12.25;63.63;100086.28;5046324;28;20048;-61
2023/01/07 08:59:26;;;;;;;1.50;0.80;;;;;;;12.35;63.54;100079.53;5054816;28;20390;-61
2023/01/07 09:01:55;;;;;;;1.65;0.95;;;;;;;12.44;62.86;100077.50;5048045;28;20053;-61
2023/01/07 09:04:22;;;;;;;2.35;0.77;;;;;;;12.47;62.33;100076.00;5048153;28;20501;-60
2023/01/07 09:06:49;;;;;;;1.65;0.80;;;;;;;12.40;62.50;100070.94;5049815;28;20049;-60
2023/01/07 09:09:17;;;;;;;1.30;0.73;;;;;;;12.39;62.96;100077.69;5047964;28;20056;-56
2023/01/07 09:11:44;;;;;;;1.17;0.60;;;;;;;12.28;61.96;100068.84;5048866;28;20045;-60
2023/01/07 09:14:11;;;;;;;1.25;0.80;;;;;;;12.38;61.90;100074.06;5051128;28;20405;-61
2023/01/07 09:16:39;;;;;;;1.45;0.88;;;;;;;12.37;62.35;100066.03;5051306;28;20049;-61
2023/01/07 09:19:07;;;;;;;1.38;1.13;;;;;;;12.37;62.56;100068.84;5054187;28;20076;-61
2023/01/07 09:21:35;;;;;;;1.73;0.90;;;;;;;12.44;61.56;100076.69;5052724;28;20041;-61
2023/01/07 09:24:02;;;;;;;1.20;0.75;;;;;;;12.32;61.83;100069.00;5057283;28;20067;-61
2023/01/07 09:26:29;;;;;;;1.45;0.70;;;;;;;12.34;62.37;100066.69;5065694;28;20056;-61
2023/01/07 09:28:56;;;;;;;1.85;0.90;;;;;;;12.27;61.87;100067.22;5054061;28;20076;-61
2023/01/07 09:31:24;;;;;;;2.40;0.90;;;;;;;12.23;62.83;100066.25;5047811;28;20064;-61
2023/01/07 09:33:52;;;;;;;1.63;0.90;;;;;;;12.20;62.87;100061.38;5053890;28;20056;-61
2023/01/07 09:36:20;;;;;;;1.40;0.80;;;;;;;12.13;62.54;100061.84;5050691;28;20409;-60
2023/01/07 09:38:47;;;;;;;2.88;1.15;;;;;;;12.09;63.62;100072.06;5051110;28;20052;-61
2023/01/07 09:41:28;;;;;;;1.63;1.00;;;;;;;12.15;62.66;100062.34;5051082;28;20049;-62
2023/01/07 09:44:10;;;;;;;2.60;1.10;;;;;;;12.26;62.91;100053.59;5044934;28;20488;-60
2023/01/07 09:46:37;;;;;;;1.90;1.35;;;;;;;12.15;63.63;100064.31;5051160;28;20049;-61
2023/01/07 09:49:05;;;;;;;2.38;1.30;;;;;;;12.17;62.66;100048.88;5050873;28;20083;-60
2023/01/07 09:51:38;;;;;;;3.42;1.30;;;;;;;12.23;62.72;100062.66;5051957;28;20045;-60
2023/01/07 09:54:15;;;;;;;2.00;1.40;;;;;;;12.18;63.18;100044.13;5051478;28;20048;-62
2023/01/07 09:56:42;;;;;;;2.00;1.48;;;;;;;12.19;63.94;100040.97;5052729;28;20056;-61
2023/01/07 09:59:10;;;;;;;2.20;1.65;;;;;;;12.26;63.15;100043.22;5052701;28;20506;-61
2023/01/07 10:01:44;;;;;;;2.47;1.60;;;;;;;12.30;62.89;100052.56;5050590;28;20379;-60
2023/01/07 10:04:24;;;;;;;2.95;1.80;;;;;;;12.47;63.04;100039.69;5049067;28;20053;-62
2023/01/07 10:07:02;;;;;;;3.63;2.10;;;;;;;12.43;61.76;100041.50;5043146;28;20052;-62
2023/01/07 10:09:38;;;;;;;2.20;1.65;;;;;;;12.46;61.89;100030.50;5052872;28;20053;-61
2023/01/07 10:12:15;;;;;;;2.55;2.10;;;;;;;12.68;61.41;100036.91;5046403;28;20524;-62
2023/01/07 10:15:04;;;;;;;3.30;2.47;;;;;;;12.76;60.34;100020.09;5052522;28;20053;-60
2023/01/07 10:17:44;;;;;;;3.08;2.30;;;;;;;12.83;60.33;100024.31;5052677;28;20044;-61
2023/01/07 10:20:20;;;;;;;3.15;2.30;;;;;;;12.95;60.87;100014.00;5044595;28;20052;-61
2023/01/07 10:22:53;;;;;;;2.78;2.10;;;;;;;13.09;60.87;100012.94;5049805;28;20049;-60
2023/01/07 10:25:25;;;;;;;4.32;2.20;;;;;;;13.20;59.53;100000.94;5056119;28;20059;-60
2023/01/07 10:27:54;;;;;;;2.92;1.90;;;;;;;13.47;60.01;100003.53;5051952;28;20048;-60
2023/01/07 10:30:25;;;;;;;2.63;1.92;;;;;;;13.55;58.43;99995.03;5050308;28;20053;-58
2023/01/07 10:32:59;;;;;;;2.80;2.03;;;;;;;13.73;57.23;99998.47;5042883;28;20056;-57
2023/01/07 10:35:29;;;;;;;2.42;1.88;;;;;;;13.98;57.03;99988.13;5051655;28;20524;-59
2023/01/07 10:38:01;;;;;;;2.70;1.98;;;;;;;14.22;56.27;99983.69;5050136;28;20052;-61
2023/01/07 10:40:39;;;;;;;3.20;2.20;;;;;;;14.55;55.83;99980.75;5043981;28;20061;-59
2023/01/07 10:43:22;;;;;;;4.07;2.70;;;;;;;14.62;54.62;99971.75;5046845;28;20512;-60
2023/01/07 10:46:11;;;;;;;3.42;2.65;;;;;;;14.81;53.89;99980.31;5044243;28;20049;-60
2023/01/07 10:49:07;;;;;;;4.32;2.67;;;;;;;15.12;53.45;99975.16;5050540;28;20049;-61
2023/01/07 10:51:50;;;;;;;3.75;3.03;;;;;;;15.56;51.85;99966.75;5050147;28;20060;-59
2023/01/07 10:54:32;;;;;;;4.20;2.85;;;;;;;15.72;50.52;99959.19;5055349;28;20428;-57
2023/01/07 10:57:05;;;;;;;3.15;2.58;;;;;;;15.80;50.98;99957.38;5057855;28;20497;-60
2023/01/07 10:59:33;;;;;;;2.72;2.28;;;;;;;15.85;49.68;99950.69;5060113;28;20060;-60
2023/01/07 11:02:00;;;;;;;4.57;2.33;;;;;;;15.58;50.22;99948.38;5045466;28;20045;-57
2023/01/07 11:04:28;;;;;;;3.13;2.40;;;;;;;15.47;50.93;99933.25;5051632;28;20049;-60
2023/01/07 11:06:59;;;;;;;3.13;2.42;;;;;;;15.37;50.60;99926.19;5045049;28;20060;-55
2023/01/07 11:09:31;;;;;;;2.90;1.92;;;;;;;15.76;50.21;99928.41;5043666;28;20060;-60
2023/01/07 11:12:02;;;;;;;3.45;2.13;;;;;;;16.24;48.74;99920.72;5049459;28;20049;-58
2023/01/07 11:14:33;;;;;;;5.32;1.70;;;;;;;16.01;49.08;99917.78;5049949;28;20498;-60
2023/01/07 11:17:10;;;;;;;2.47;1.88;;;;;;;16.41;48.20;99914.69;5045158;28;20414;-61
2023/01/07 11:19:43;;;;;;;3.20;2.30;;;;;;;15.94;49.31;99912.00;5044118;28;20052;-60
2023/01/07 11:22:29;;;;;;;2.85;2.13;;;;;;;15.90;48.27;99902.66;5032816;28;20053;-60
2023/01/07 11:24:59;;;;;;;2.90;2.10;;;;;;;15.73;49.13;99896.25;5057872;28;20060;-60
2023/01/07 11:27:29;;;;;;;3.90;2.20;;;;;;;16.37;49.43;99874.44;5052563;28;20059;-61
2023/01/07 11:29:59;;;;;;;2.80;2.20;;;;;;;16.81;46.78;99881.81;5052832;28;20064;-60
2023/01/07 11:32:29;;;;;;;2.95;1.90;;;;;;;17.26;45.16;99863.38;5052276;28;20059;-60
2023/01/07 11:34:59;;;;;;;2.90;1.63;;;;;;;17.33;44.80;99863.50;5052177;28;20060;-61
2023/01/07 11:37:37;;;;;;;3.13;1.73;;;;;;;17.38;44.57;99845.47;5050971;28;20060;-60
2023/01/07 11:40:19;;;;;;;2.10;1.55;;;;;;;17.60;43.45;99846.66;5072498;28;20056;-61
2023/01/07 11:42:51;;;;;;;4.78;1.92;;;;;;;16.94;44.69;99832.63;5072533;28;20068;-61
2023/01/07 11:45:21;;;;;;;3.55;2.17;;;;;;;16.92;44.76;99828.56;5072544;28;20057;-61
2023/01/07 11:48:00;;;;;;;2.00;1.50;;;;;;;16.73;45.90;99830.19;5072309;28;20057;-61